createdAt,value
2018-07-08T00:00:45.521Z,53.11
2018-07-08T00:03:14.616Z,53.59
2018-07-08T00:05:43.271Z,53.57
2018-07-08T00:08:11.989Z,54.12
2018-07-08T00:10:42.652Z,54.19
2018-07-08T00:13:11.344Z,53.38
2018-07-08T00:15:40.203Z,53.61
2018-07-08T00:18:09.291Z,54.75
2018-07-08T00:20:38.003Z,54.95
2018-07-08T00:23:06.772Z,54.27
2018-07-08T00:25:35.750Z,54.40
2018-07-08T00:28:04.623Z,54.87
2018-07-08T00:30:33.477Z,54.92
2018-07-08T00:33:02.778Z,56.00
2018-07-08T00:35:31.872Z,54.64
2018-07-08T00:38:02.050Z,55.89
2018-07-08T00:40:31.219Z,56.00
2018-07-08T00:43:00.223Z,56.44
2018-07-08T00:45:29.353Z,55.68
2018-07-08T00:47:58.667Z,55.77
2018-07-08T00:50:27.518Z,55.91
2018-07-08T00:52:56.298Z,55.96
2018-07-08T00:55:24.992Z,56.67
2018-07-08T00:57:53.721Z,56.48
2018-07-08T01:00:37.894Z,56.47
2018-07-08T01:03:09.482Z,56.57
2018-07-08T01:05:38.420Z,56.67
2018-07-08T01:08:07.147Z,57.28
2018-07-08T01:10:35.942Z,56.67
2018-07-08T01:13:04.816Z,56.53
2018-07-08T01:15:33.568Z,56.75
2018-07-08T01:18:02.298Z,57.83
2018-07-08T01:20:31.025Z,57.15
2018-07-08T01:22:59.663Z,57.04
2018-07-08T01:25:39.382Z,57.68
2018-07-08T01:28:08.725Z,57.50
2018-07-08T01:30:37.492Z,57.74
2018-07-08T01:33:06.587Z,57.77
2018-07-08T01:35:35.345Z,57.59
2018-07-08T01:38:04.038Z,57.57
2018-07-08T01:40:32.680Z,58.34
2018-07-08T01:43:01.358Z,58.00
2018-07-08T01:45:30.047Z,58.39
2018-07-08T01:47:58.803Z,59.13
2018-07-08T01:50:27.463Z,59.11
2018-07-08T01:52:56.112Z,59.31
2018-07-08T01:55:24.981Z,58.61
2018-07-08T01:57:53.644Z,58.81
2018-07-08T02:00:22.385Z,59.59
2018-07-08T02:02:51.475Z,60.29
2018-07-08T02:05:20.293Z,60.29
2018-07-08T02:07:48.969Z,59.50
2018-07-08T02:10:17.736Z,61.25
2018-07-08T02:12:46.884Z,61.83
2018-07-08T02:15:15.953Z,61.57
2018-07-08T02:17:44.722Z,60.29
2018-07-08T02:20:13.468Z,60.59
2018-07-08T02:22:42.140Z,60.26
2018-07-08T02:25:11.557Z,60.68
2018-07-08T02:27:41.763Z,60.63
2018-07-08T02:30:10.518Z,59.76
2018-07-08T02:32:39.562Z,60.63
2018-07-08T02:35:08.233Z,59.62
2018-07-08T02:37:36.986Z,61.08
2018-07-08T02:40:06.144Z,61.11
2018-07-08T02:42:35.538Z,61.09
2018-07-08T02:45:04.246Z,61.49
2018-07-08T02:47:33.021Z,60.27
2018-07-08T02:50:01.715Z,61.54
2018-07-08T02:52:30.538Z,61.84
2018-07-08T02:54:59.249Z,62.31
2018-07-08T02:57:28.223Z,62.00
2018-07-08T02:59:56.970Z,61.56
2018-07-08T03:02:25.711Z,60.89
2018-07-08T03:04:54.400Z,60.80
2018-07-08T03:07:24.242Z,60.82
2018-07-08T03:09:53.275Z,61.04
2018-07-08T03:12:23.528Z,62.10
2018-07-08T03:14:52.233Z,61.52
2018-07-08T03:17:21.551Z,62.12
2018-07-08T03:19:50.341Z,61.63
2018-07-08T03:22:19.014Z,61.70
2018-07-08T03:24:47.709Z,62.33
2018-07-08T03:27:16.405Z,62.42
2018-07-08T03:29:45.046Z,61.69
2018-07-08T03:32:13.808Z,62.04
2018-07-08T03:34:42.538Z,62.57
2018-07-08T03:37:11.772Z,62.58
2018-07-08T03:39:40.430Z,62.96
2018-07-08T03:42:09.140Z,62.57
2018-07-08T03:44:37.798Z,61.86
2018-07-08T03:47:06.475Z,62.79
2018-07-08T03:49:35.160Z,62.88
2018-07-08T03:52:04.398Z,62.55
2018-07-08T03:54:33.800Z,62.66
2018-07-08T03:57:03.632Z,62.26
2018-07-08T03:59:33.263Z,63.19
2018-07-08T04:02:03.120Z,63.71
2018-07-08T04:04:32.411Z,62.71
2018-07-08T04:07:01.681Z,63.25
2018-07-08T04:09:30.673Z,63.42
2018-07-08T04:12:00.252Z,63.20
2018-07-08T04:14:30.020Z,63.58
2018-07-08T04:16:59.353Z,63.88
2018-07-08T04:19:29.214Z,63.59
2018-07-08T04:21:59.731Z,62.71
2018-07-08T04:24:28.941Z,63.82
2018-07-08T04:26:58.020Z,63.28
2018-07-08T04:29:26.948Z,63.12
2018-07-08T04:31:55.907Z,63.55
2018-07-08T04:34:24.631Z,62.88
2018-07-08T04:36:53.341Z,63.24
2018-07-08T04:39:22.003Z,63.43
2018-07-08T04:41:50.721Z,62.95
2018-07-08T04:44:19.410Z,63.29
2018-07-08T04:46:48.120Z,63.21
2018-07-08T04:49:16.778Z,63.46
2018-07-08T04:51:45.516Z,63.48
2018-07-08T04:54:14.119Z,63.15
2018-07-08T04:56:43.095Z,62.95
2018-07-08T04:59:11.774Z,63.17
2018-07-08T05:01:40.444Z,63.37
2018-07-08T05:04:09.384Z,63.10
2018-07-08T05:06:38.586Z,63.43
2018-07-08T05:09:07.599Z,62.83
2018-07-08T05:11:36.568Z,63.70
2018-07-08T05:14:05.229Z,62.26
2018-07-08T05:16:33.981Z,63.60
2018-07-08T05:19:02.613Z,64.63
2018-07-08T05:21:31.449Z,62.69
2018-07-08T05:24:00.386Z,63.92
2018-07-08T05:26:29.358Z,63.25
2018-07-08T05:28:58.308Z,63.72
2018-07-08T05:31:27.071Z,62.33
2018-07-08T05:33:55.755Z,63.17
2018-07-08T05:36:24.369Z,62.40
2018-07-08T05:38:53.130Z,61.99
2018-07-08T05:41:21.769Z,62.47
2018-07-08T05:43:50.455Z,62.39
2018-07-08T05:46:19.106Z,62.09
2018-07-08T05:48:47.897Z,62.13
2018-07-08T05:51:16.587Z,61.57
2018-07-08T05:53:46.134Z,62.17
2018-07-08T05:56:14.808Z,61.70
2018-07-08T05:58:43.636Z,63.49
2018-07-08T06:01:12.254Z,62.83
2018-07-08T06:03:42.874Z,62.24
2018-07-08T06:06:14.150Z,61.99
2018-07-08T06:08:43.405Z,61.64
2018-07-08T06:11:12.035Z,62.52
2018-07-08T06:13:40.821Z,62.65
2018-07-08T06:16:09.479Z,62.61
2018-07-08T06:18:38.376Z,64.51
2018-07-08T06:21:07.501Z,63.98
2018-07-08T06:23:36.745Z,64.10
2018-07-08T06:26:06.167Z,64.05
2018-07-08T06:28:34.872Z,64.42
2018-07-08T06:31:03.485Z,64.30
2018-07-08T06:33:32.492Z,63.95
2018-07-08T06:36:01.454Z,64.03
2018-07-08T06:38:30.189Z,64.54
2018-07-08T06:40:59.104Z,63.53
2018-07-08T06:43:28.277Z,64.28
2018-07-08T06:45:57.606Z,63.69
2018-07-08T06:48:26.581Z,64.14
2018-07-08T06:50:55.519Z,64.92
2018-07-08T06:53:24.201Z,64.89
2018-07-08T06:55:52.886Z,65.28
2018-07-08T06:58:21.847Z,64.54
2018-07-08T07:00:50.883Z,64.66
2018-07-08T07:03:19.977Z,65.59
2018-07-08T07:05:48.920Z,63.77
2018-07-08T07:08:17.988Z,64.35
2018-07-08T07:10:47.034Z,65.41
2018-07-08T07:13:16.195Z,65.89
2018-07-08T07:15:45.683Z,66.38
2018-07-08T07:18:14.626Z,66.06
2018-07-08T07:20:43.270Z,65.25
2018-07-08T07:23:12.237Z,63.71
2018-07-08T07:25:40.898Z,63.48
2018-07-08T07:28:09.527Z,64.47
2018-07-08T07:30:38.171Z,65.88
2018-07-08T07:33:07.257Z,65.65
2018-07-08T07:35:36.216Z,64.67
2018-07-08T07:38:05.841Z,64.26
2018-07-08T07:40:34.499Z,65.66
2018-07-08T07:43:03.541Z,63.79
2018-07-08T07:45:32.617Z,63.48
2018-07-08T07:48:01.236Z,65.98
2018-07-08T07:50:29.999Z,65.27
2018-07-08T07:52:58.681Z,65.91
2018-07-08T07:55:27.302Z,65.83
2018-07-08T07:57:55.994Z,65.31
2018-07-08T08:00:24.883Z,64.20
2018-07-08T08:02:53.939Z,63.73
2018-07-08T08:05:22.738Z,63.90
2018-07-08T08:07:51.845Z,64.16
2018-07-08T08:10:20.864Z,65.69
2018-07-08T08:12:49.642Z,64.32
2018-07-08T08:15:18.507Z,63.44
2018-07-08T08:17:47.396Z,64.33
2018-07-08T08:20:16.066Z,65.09
2018-07-08T08:22:44.753Z,64.78
2018-07-08T08:25:13.444Z,65.54
2018-07-08T08:27:43.274Z,63.15
2018-07-08T08:30:12.152Z,64.41
2018-07-08T08:32:40.886Z,64.46
2018-07-08T08:35:11.780Z,64.46
2018-07-08T08:37:45.522Z,62.85
2018-07-08T08:40:15.635Z,64.34
2018-07-08T08:42:44.287Z,63.10
2018-07-08T08:45:14.257Z,65.02
2018-07-08T08:47:43.293Z,64.62
2018-07-08T08:50:12.745Z,63.81
2018-07-08T08:52:41.423Z,63.72
2018-07-08T08:55:11.208Z,61.93
2018-07-08T08:57:40.015Z,61.02
2018-07-08T09:00:11.083Z,59.74
2018-07-08T09:02:40.496Z,60.71
2018-07-08T09:05:10.187Z,59.39
2018-07-08T09:07:38.899Z,60.84
2018-07-08T09:10:07.798Z,62.24
2018-07-08T09:12:36.741Z,60.00
2018-07-08T09:15:05.558Z,61.61
2018-07-08T09:17:34.633Z,58.94
2018-07-08T09:20:03.426Z,61.21
2018-07-08T09:22:32.180Z,58.45
2018-07-08T09:25:01.384Z,57.55
2018-07-08T09:27:30.055Z,56.83
2018-07-08T09:29:58.804Z,55.70
2018-07-08T09:32:27.837Z,54.25
2018-07-08T09:34:56.544Z,53.18
2018-07-08T09:37:25.347Z,54.74
2018-07-08T09:39:54.516Z,54.44
2018-07-08T09:42:23.170Z,54.15
2018-07-08T09:44:52.413Z,54.98
2018-07-08T09:47:21.073Z,55.79
2018-07-08T09:49:49.753Z,55.39
2018-07-08T09:52:18.451Z,57.41
2018-07-08T09:54:47.504Z,55.54
2018-07-08T09:57:16.556Z,55.23
2018-07-08T09:59:45.976Z,56.37
2018-07-08T10:02:14.766Z,56.89
2018-07-08T10:04:43.494Z,57.84
2018-07-08T10:07:12.131Z,57.43
2018-07-08T10:09:41.183Z,56.74
2018-07-08T10:12:09.957Z,56.11
2018-07-08T10:14:38.639Z,57.70
2018-07-08T10:17:07.381Z,58.64
2018-07-08T10:19:36.172Z,59.51
2018-07-08T10:22:05.014Z,58.28
2018-07-08T10:24:33.791Z,58.69
2018-07-08T10:27:21.540Z,57.71
2018-07-08T10:29:50.227Z,58.86
2018-07-08T10:32:19.272Z,57.18
2018-07-08T10:34:48.039Z,56.68
2018-07-08T10:37:17.263Z,56.90
2018-07-08T10:39:45.945Z,56.56
2018-07-08T10:42:14.965Z,57.55
2018-07-08T10:44:43.786Z,58.45
2018-07-08T10:47:12.562Z,56.32
2018-07-08T10:49:42.045Z,57.98
2018-07-08T10:52:10.795Z,57.13
2018-07-08T10:54:39.822Z,57.71
2018-07-08T10:57:08.836Z,55.92
2018-07-08T10:59:37.531Z,58.62
2018-07-08T11:02:06.429Z,58.61
2018-07-08T11:04:35.178Z,56.50
2018-07-08T11:07:04.229Z,57.07
2018-07-08T11:09:33.570Z,56.86
2018-07-08T11:12:02.713Z,57.12
2018-07-08T11:14:31.686Z,56.80
2018-07-08T11:17:00.376Z,58.06
2018-07-08T11:19:29.496Z,56.05
2018-07-08T11:21:58.285Z,57.80
2018-07-08T11:24:26.940Z,58.81
2018-07-08T11:26:55.581Z,59.17
2018-07-08T11:29:24.292Z,58.42
2018-07-08T11:31:53.269Z,54.29
2018-07-08T11:34:21.997Z,54.69
2018-07-08T11:36:50.779Z,56.31
2018-07-08T11:39:20.028Z,56.12
2018-07-08T11:41:48.783Z,55.88
2018-07-08T11:44:17.454Z,56.45
2018-07-08T11:46:46.360Z,57.08
2018-07-08T11:49:15.526Z,57.71
2018-07-08T11:51:44.403Z,57.16
2018-07-08T11:54:13.119Z,58.62
2018-07-08T11:56:42.203Z,59.12
2018-07-08T11:59:10.929Z,57.97
2018-07-08T12:01:39.595Z,56.83
2018-07-08T12:04:08.339Z,57.98
2018-07-08T12:06:37.102Z,57.68
2018-07-08T12:09:06.424Z,57.44
2018-07-08T12:11:35.220Z,57.80
2018-07-08T12:14:03.940Z,57.20
2018-07-08T12:16:32.756Z,58.25
2018-07-08T12:19:01.487Z,58.34
2018-07-08T12:21:30.604Z,57.16
2018-07-08T12:23:59.338Z,56.74
2018-07-08T12:26:28.079Z,57.25
2018-07-08T12:28:56.830Z,56.61
2018-07-08T12:31:25.555Z,58.29
2018-07-08T12:33:54.759Z,57.94
2018-07-08T12:36:23.871Z,56.89
2018-07-08T12:38:53.020Z,59.15
2018-07-08T12:41:22.090Z,56.24
2018-07-08T12:43:50.824Z,55.61
2018-07-08T12:46:20.100Z,58.76
2018-07-08T12:48:48.873Z,56.64
2018-07-08T12:51:17.588Z,56.17
2018-07-08T12:53:46.583Z,56.22
2018-07-08T12:56:15.696Z,54.30
2018-07-08T12:58:44.709Z,53.81
2018-07-08T13:01:13.520Z,47.95
2018-07-08T13:03:42.267Z,36.75
2018-07-08T13:06:11.326Z,31.60
2018-07-08T13:08:40.621Z,28.77
2018-07-08T13:11:11.106Z,25.72
2018-07-08T13:13:39.869Z,23.78
2018-07-08T13:16:09.277Z,22.65
2018-07-08T13:18:38.475Z,21.31
2018-07-08T13:21:10.718Z,20.91
2018-07-08T13:23:39.839Z,20.98
2018-07-08T13:26:08.705Z,21.51
2018-07-08T13:28:37.560Z,19.12
2018-07-08T13:31:07.065Z,19.73
2018-07-08T13:33:35.900Z,18.14
2018-07-08T13:36:05.017Z,17.92
2018-07-08T13:38:33.780Z,19.69
2018-07-08T13:41:02.514Z,21.33
2018-07-08T13:43:31.639Z,18.10
2018-07-08T13:46:00.395Z,19.64
2018-07-08T13:48:29.448Z,18.16
2018-07-08T13:50:58.287Z,18.76
2018-07-08T13:53:27.344Z,19.27
2018-07-08T13:55:56.029Z,20.79
2018-07-08T13:58:24.741Z,18.97
2018-07-08T14:00:53.575Z,20.64
2018-07-08T14:03:22.587Z,16.93
2018-07-08T14:05:51.201Z,18.13
2018-07-08T14:08:19.929Z,19.85
2018-07-08T14:10:48.693Z,19.48
2018-07-08T14:13:18.122Z,19.21
2018-07-08T14:15:47.209Z,19.68
2018-07-08T14:18:15.884Z,21.24
2018-07-08T14:20:44.768Z,18.90
2018-07-08T14:23:13.369Z,22.55
2018-07-08T14:25:42.253Z,23.93
2018-07-08T14:28:10.918Z,25.29
2018-07-08T14:30:39.540Z,25.90
2018-07-08T14:33:08.507Z,25.14
2018-07-08T14:35:37.295Z,27.74
2018-07-08T14:38:06.266Z,27.42
2018-07-08T14:40:35.621Z,28.69
2018-07-08T14:43:04.295Z,31.08
2018-07-08T14:45:33.268Z,32.91
2018-07-08T14:48:02.329Z,34.70
2018-07-08T14:50:31.553Z,36.23
2018-07-08T14:53:00.215Z,36.95
2018-07-08T14:55:29.009Z,37.89
2018-07-08T14:57:57.663Z,38.70
2018-07-08T15:00:26.718Z,39.65
2018-07-08T15:02:55.753Z,40.36
2018-07-08T15:05:25.090Z,40.91
2018-07-08T15:07:53.760Z,41.03
2018-07-08T15:10:22.450Z,41.32
2018-07-08T15:12:51.110Z,42.05
2018-07-08T15:15:20.159Z,42.97
2018-07-08T15:17:48.786Z,41.21
2018-07-08T15:20:17.738Z,42.28
2018-07-08T15:22:46.594Z,42.85
2018-07-08T15:25:15.600Z,42.52
2018-07-08T15:27:44.286Z,43.89
2018-07-08T15:30:13.017Z,43.25
2018-07-08T15:32:41.735Z,42.75
2018-07-08T15:35:10.656Z,43.86
2018-07-08T15:37:40.768Z,43.76
2018-07-08T15:40:09.840Z,42.98
2018-07-08T15:42:38.537Z,43.82
2018-07-08T15:45:08.228Z,43.80
2018-07-08T15:47:36.908Z,42.95
2018-07-08T15:50:05.971Z,43.36
2018-07-08T15:52:34.732Z,44.60
2018-07-08T15:55:03.610Z,44.00
2018-07-08T15:57:32.512Z,43.99
2018-07-08T16:00:01.189Z,44.77
2018-07-08T16:02:30.555Z,44.35
2018-07-08T16:04:59.332Z,44.27
2018-07-08T16:07:28.061Z,44.29
2018-07-08T16:09:57.027Z,44.13
2018-07-08T16:12:25.747Z,45.49
2018-07-08T16:14:54.977Z,45.42
2018-07-08T16:17:23.862Z,46.24
2018-07-08T16:19:52.596Z,46.17
2018-07-08T16:22:21.799Z,46.72
2018-07-08T16:24:50.619Z,45.68
2018-07-08T16:27:19.646Z,45.94
2018-07-08T16:29:48.612Z,45.89
2018-07-08T16:32:17.663Z,45.90
2018-07-08T16:34:46.720Z,45.00
2018-07-08T16:37:15.429Z,44.98
2018-07-08T16:39:44.141Z,45.22
2018-07-08T16:42:12.845Z,45.13
2018-07-08T16:44:42.070Z,45.16
2018-07-08T16:47:13.168Z,45.26
2018-07-08T16:49:41.861Z,45.42
2018-07-08T16:52:10.632Z,44.54
2018-07-08T16:54:39.693Z,45.30
2018-07-08T16:57:08.473Z,45.72
2018-07-08T16:59:37.150Z,45.16
2018-07-08T17:02:12.569Z,45.53
2018-07-08T17:04:41.433Z,45.58
2018-07-08T17:07:10.447Z,46.01
2018-07-08T17:09:39.222Z,45.41
2018-07-08T17:12:08.086Z,45.70
2018-07-08T17:14:37.271Z,45.62
2018-07-08T17:17:06.055Z,45.86
2018-07-08T17:19:34.790Z,45.98
2018-07-08T17:22:03.612Z,45.42
2018-07-08T17:24:32.558Z,46.10
2018-07-08T17:27:01.287Z,45.84
2018-07-08T17:29:30.249Z,45.19
2018-07-08T17:31:59.303Z,45.24
2018-07-08T17:34:28.136Z,45.37
2018-07-08T17:36:57.423Z,45.58
2018-07-08T17:39:26.246Z,46.10
2018-07-08T17:41:55.346Z,45.33
2018-07-08T17:44:24.400Z,45.21
2018-07-08T17:46:53.216Z,46.09
2018-07-08T17:49:22.182Z,46.05
2018-07-08T17:51:51.710Z,46.22
2018-07-08T17:54:21.509Z,45.95
2018-07-08T17:56:50.244Z,45.72
2018-07-08T17:59:19.032Z,45.66
2018-07-08T18:01:48.163Z,45.59
2018-07-08T18:04:16.884Z,45.75
2018-07-08T18:06:46.290Z,45.70
2018-07-08T18:09:15.551Z,46.23
2018-07-08T18:11:44.371Z,46.08
2018-07-08T18:14:13.420Z,45.94
2018-07-08T18:16:42.702Z,45.49
2018-07-08T18:19:11.588Z,46.01
2018-07-08T18:21:40.811Z,45.75
2018-07-08T18:24:09.537Z,46.94
2018-07-08T18:26:38.229Z,46.15
2018-07-08T18:29:07.009Z,45.95
2018-07-08T18:31:35.900Z,45.83
2018-07-08T18:34:04.622Z,45.99
2018-07-08T18:36:33.337Z,46.10
2018-07-08T18:39:02.127Z,46.32
2018-07-08T18:41:30.941Z,46.24
2018-07-08T18:43:59.727Z,46.15
2018-07-08T18:46:28.501Z,46.28
2018-07-08T18:48:57.468Z,45.62
2018-07-08T18:51:26.192Z,46.48
2018-07-08T18:53:54.853Z,45.77
2018-07-08T18:56:24.098Z,46.12
2018-07-08T18:58:53.026Z,46.08
2018-07-08T19:01:21.947Z,45.77
2018-07-08T19:03:52.066Z,45.97
2018-07-08T19:06:20.944Z,45.34
2018-07-08T19:08:49.700Z,46.00
2018-07-08T19:11:18.415Z,45.77
2018-07-08T19:13:47.727Z,46.10
2018-07-08T19:16:16.857Z,46.57
2018-07-08T19:18:45.628Z,46.49
2018-07-08T19:21:14.392Z,46.30
2018-07-08T19:23:43.429Z,45.85
2018-07-08T19:26:12.388Z,45.78
2018-07-08T19:28:41.086Z,45.09
2018-07-08T19:31:09.849Z,44.95
2018-07-08T19:33:38.760Z,44.88
2018-07-08T19:36:07.700Z,45.18
2018-07-08T19:38:36.511Z,45.68
2018-07-08T19:41:05.868Z,45.62
2018-07-08T19:43:34.827Z,45.16
2018-07-08T19:46:04.026Z,45.83
2018-07-08T19:48:33.614Z,45.22
2018-07-08T19:51:02.407Z,46.23
2018-07-08T19:53:31.431Z,45.61
2018-07-08T19:56:00.982Z,45.84
2018-07-08T19:58:29.827Z,45.83
2018-07-08T20:00:58.631Z,45.52
2018-07-08T20:03:27.327Z,45.77
2018-07-08T20:05:55.971Z,45.73
2018-07-08T20:08:24.738Z,45.56
2018-07-08T20:10:53.849Z,45.96
2018-07-08T20:13:22.700Z,46.14
2018-07-08T20:15:52.039Z,46.08
2018-07-08T20:18:20.808Z,46.24
2018-07-08T20:20:49.636Z,46.41
2018-07-08T20:23:19.447Z,46.42
2018-07-08T20:25:48.319Z,46.47
2018-07-08T20:28:17.145Z,45.88
2018-07-08T20:30:46.266Z,46.67
2018-07-08T20:33:14.948Z,46.95
2018-07-08T20:35:43.950Z,46.54
2018-07-08T20:38:12.561Z,47.04
2018-07-08T20:40:41.679Z,46.88
2018-07-08T20:43:10.566Z,47.11
2018-07-08T20:45:39.394Z,47.56
2018-07-08T20:48:08.233Z,46.47
2018-07-08T20:50:36.926Z,46.68
2018-07-08T20:53:05.723Z,46.61
2018-07-08T20:55:34.577Z,46.23
2018-07-08T20:58:03.311Z,46.55
2018-07-08T21:00:32.330Z,46.85
2018-07-08T21:03:01.074Z,47.10
2018-07-08T21:05:30.422Z,46.79
2018-07-08T21:07:59.202Z,46.68
2018-07-08T21:10:28.029Z,47.57
2018-07-08T21:12:56.673Z,47.62
2018-07-08T21:15:25.299Z,47.31
2018-07-08T21:17:53.976Z,47.42
2018-07-08T21:20:22.761Z,48.03
2018-07-08T21:22:51.800Z,47.67
2018-07-08T21:25:20.510Z,47.95
2018-07-08T21:27:50.242Z,48.18
2018-07-08T21:30:18.866Z,47.91
2018-07-08T21:32:47.476Z,48.61
2018-07-08T21:35:17.083Z,48.72
2018-07-08T21:37:46.137Z,48.97
2018-07-08T21:40:14.825Z,49.58
2018-07-08T21:42:43.782Z,49.18
2018-07-08T21:45:12.763Z,49.55
2018-07-08T21:47:41.580Z,49.16
2018-07-08T21:50:10.180Z,48.74
2018-07-08T21:52:38.931Z,49.12
2018-07-08T21:55:07.768Z,49.47
2018-07-08T21:57:36.471Z,49.28
2018-07-08T22:00:05.786Z,49.59
2018-07-08T22:02:34.626Z,49.48
2018-07-08T22:05:03.528Z,48.94
2018-07-08T22:07:37.742Z,49.29
2018-07-08T22:10:07.887Z,48.84
2018-07-08T22:12:38.172Z,48.99
2018-07-08T22:15:06.999Z,48.53
2018-07-08T22:17:35.638Z,48.55
2018-07-08T22:20:04.665Z,48.58
2018-07-08T22:22:33.420Z,48.82
2018-07-08T22:25:02.067Z,48.64
2018-07-08T22:27:32.043Z,48.48
2018-07-08T22:30:00.711Z,48.14
2018-07-08T22:32:29.414Z,48.25
2018-07-08T22:34:58.716Z,48.76
2018-07-08T22:37:27.525Z,48.53
2018-07-08T22:39:56.380Z,48.44
2018-07-08T22:42:25.394Z,48.83
2018-07-08T22:44:54.908Z,48.46
2018-07-08T22:47:23.552Z,48.73
2018-07-08T22:49:52.259Z,48.79
2018-07-08T22:52:21.113Z,48.71
2018-07-08T22:54:49.768Z,48.74
2018-07-08T22:57:18.436Z,48.76
2018-07-08T22:59:58.228Z,48.94
2018-07-08T23:02:39.288Z,48.59
2018-07-08T23:05:07.972Z,49.39
2018-07-08T23:07:36.670Z,49.07
2018-07-08T23:10:05.350Z,48.64
2018-07-08T23:12:34.090Z,48.76
2018-07-08T23:15:03.070Z,48.23
2018-07-08T23:17:32.155Z,49.37
2018-07-08T23:20:01.917Z,49.19
2018-07-08T23:22:42.178Z,48.90
2018-07-08T23:25:12.368Z,48.42
2018-07-08T23:27:41.333Z,48.92
2018-07-08T23:30:10.329Z,48.53
2018-07-08T23:32:39.481Z,49.12
2018-07-08T23:35:08.218Z,49.10
2018-07-08T23:37:36.922Z,49.74
2018-07-08T23:40:05.616Z,49.83
2018-07-08T23:42:34.264Z,49.79
2018-07-08T23:45:02.964Z,49.53
2018-07-08T23:47:31.671Z,49.83
2018-07-08T23:50:00.651Z,50.24
2018-07-08T23:52:29.626Z,49.80
2018-07-08T23:54:58.294Z,50.54
2018-07-08T23:57:27.018Z,50.37
2018-07-08T23:59:56.039Z,50.83
